Time;durP1;ratioP1;P1;durP2;ratioP2;P2;SDS_P1;SDS_P2;PMS_P1;PMS_P2;Temp;Humidity;BMP_temperature;BMP_pressure;BME280_temperature;BME280_humidity;BME280_pressure;Samples;Min_cycle;Max_cycle;Signal;HPM_P1;HPM_P2
2022/08/07 00:00:51;;;;;;;5.90;2.10;;;;;;;17.77;57.31;99619.85;107970;1274;96895;-66
2022/08/07 00:03:22;;;;;;;4.80;2.00;;;;;;;17.75;57.17;99620.58;107936;1274;111837;-66
2022/08/07 00:05:52;;;;;;;6.80;2.10;;;;;;;17.74;57.43;99616.48;107822;1276;97153;-65
2022/08/07 00:08:24;;;;;;;7.10;2.10;;;;;;;17.73;57.39;99611.09;107946;1274;107962;-65
2022/08/07 00:10:52;;;;;;;3.70;1.80;;;;;;;17.69;57.45;99597.77;107873;1276;96996;-65
2022/08/07 00:13:24;;;;;;;5.50;2.70;;;;;;;17.70;57.19;99601.28;107958;1272;97127;-66
2022/08/07 00:15:54;;;;;;;12.20;3.20;;;;;;;17.68;57.47;99604.41;107911;1274;112922;-65
2022/08/07 00:18:25;;;;;;;5.20;2.40;;;;;;;17.63;57.47;99601.40;107960;1274;97246;-65
2022/08/07 00:20:56;;;;;;;7.00;2.20;;;;;;;17.60;57.48;99603.19;107869;1274;107840;-67
2022/08/07 00:23:31;;;;;;;5.10;2.10;;;;;;;17.59;57.73;99602.88;107805;1274;97560;-66
2022/08/07 00:26:00;;;;;;;6.00;2.30;;;;;;;17.57;57.46;99600.19;107915;1274;97065;-66
2022/08/07 00:28:45;;;;;;;5.40;2.70;;;;;;;17.52;57.59;99600.66;107894;1274;112913;-66
2022/08/07 00:31:24;;;;;;;8.30;2.40;;;;;;;17.49;57.58;99600.20;107955;1274;97529;-66
2022/08/07 00:34:04;;;;;;;5.50;2.30;;;;;;;17.49;57.62;99608.68;107895;1274;107849;-66
2022/08/07 00:36:37;;;;;;;6.00;2.20;;;;;;;17.49;57.98;99611.11;107785;1276;97357;-66
2022/08/07 00:39:12;;;;;;;5.90;2.60;;;;;;;17.50;57.80;99609.46;107891;1274;97302;-65
2022/08/07 00:41:52;;;;;;;9.20;2.50;;;;;;;17.50;57.82;99617.48;107828;1275;112902;-65
2022/08/07 00:44:33;;;;;;;8.00;2.40;;;;;;;17.50;58.08;99620.56;107758;1274;97500;-65
2022/08/07 00:47:05;;;;;;;6.20;2.10;;;;;;;17.48;57.91;99617.85;107784;1275;107916;-66
2022/08/07 00:49:53;;;;;;;7.10;2.40;;;;;;;17.49;58.21;99621.55;107860;1274;97115;-65
2022/08/07 00:52:41;;;;;;;7.30;2.60;;;;;;;17.50;57.92;99614.71;107888;1274;97019;-64
2022/08/07 00:55:14;;;;;;;6.50;2.30;;;;;;;17.49;58.24;99611.73;107863;1276;113826;-65
2022/08/07 00:57:51;;;;;;;4.90;2.30;;;;;;;17.46;58.11;99610.23;107894;1275;96990;-65
2022/08/07 01:00:23;;;;;;;3.70;2.20;;;;;;;17.41;58.09;99606.91;107870;1276;107791;-65
2022/08/07 01:02:51;;;;;;;4.30;2.30;;;;;;;17.39;57.91;99612.77;107825;1276;97270;-65
2022/08/07 01:05:19;;;;;;;6.80;2.40;;;;;;;17.41;58.11;99612.58;107885;1276;96985;-65
2022/08/07 01:07:51;;;;;;;6.40;2.00;;;;;;;17.43;58.24;99605.83;107887;1275;112747;-66
2022/08/07 01:10:21;;;;;;;8.40;2.40;;;;;;;17.40;58.24;99608.22;107891;1276;97000;-65
2022/08/07 01:12:52;;;;;;;3.80;1.90;;;;;;;17.38;58.35;99611.65;107885;1276;107982;-65
2022/08/07 01:15:24;;;;;;;6.00;2.60;;;;;;;17.37;58.36;99614.45;107942;1274;96973;-66
2022/08/07 01:18:12;;;;;;;4.60;2.50;;;;;;;17.36;58.36;99614.11;107836;1276;97095;-66
2022/08/07 01:20:53;;;;;;;4.90;2.20;;;;;;;17.36;58.48;99604.61;107813;1276;112887;-64
2022/08/07 01:23:28;;;;;;;9.10;2.20;;;;;;;17.38;58.59;99604.27;107935;1274;97490;-65
2022/08/07 01:26:07;;;;;;;5.10;2.10;;;;;;;17.39;58.50;99608.99;107967;1274;107644;-65
2022/08/07 01:28:41;;;;;;;9.60;2.60;;;;;;;17.39;58.50;99601.12;107941;1274;96981;-64
2022/08/07 01:31:16;;;;;;;5.60;2.30;;;;;;;17.36;58.57;99604.64;107804;1276;97076;-65
2022/08/07 01:33:47;;;;;;;6.70;2.50;;;;;;;17.32;58.68;99607.13;107877;1275;112755;-65
2022/08/07 01:36:24;;;;;;;4.20;2.00;;;;;;;17.32;58.69;99609.65;107916;1274;97074;-64
2022/08/07 01:39:03;;;;;;;7.40;2.20;;;;;;;17.33;58.66;99611.52;107963;1274;108326;-64
2022/08/07 01:41:38;;;;;;;4.50;2.30;;;;;;;17.32;58.67;99621.14;107836;1275;97049;-65
2022/08/07 01:44:26;;;;;;;14.30;2.50;;;;;;;17.32;58.87;99622.45;107981;1274;97334;-66
2022/08/07 01:46:54;;;;;;;5.80;2.30;;;;;;;17.33;58.90;99628.61;107831;1276;112982;-65
2022/08/07 01:49:22;;;;;;;6.60;2.00;;;;;;;17.33;58.86;99627.89;107939;1274;97272;-67
2022/08/07 01:51:54;;;;;;;4.70;2.20;;;;;;;17.33;58.87;99626.73;107920;1274;108937;-67
2022/08/07 01:54:35;;;;;;;9.70;2.50;;;;;;;17.34;58.90;99620.60;107830;1276;98346;-66
2022/08/07 01:57:22;;;;;;;10.80;2.60;;;;;;;17.37;58.91;99619.10;107957;1274;97638;-65
2022/08/07 02:00:03;;;;;;;7.10;2.30;;;;;;;17.37;59.05;99617.81;107906;1274;112976;-65
2022/08/07 02:02:47;;;;;;;5.30;2.30;;;;;;;17.34;59.01;99620.98;107982;1274;97138;-65
2022/08/07 02:05:40;;;;;;;5.00;2.20;;;;;;;17.31;58.89;99615.66;107907;1274;107874;-65
2022/08/07 02:08:28;;;;;;;6.00;2.40;;;;;;;17.28;59.03;99617.61;107923;1274;97240;-65
2022/08/07 02:10:59;;;;;;;8.60;2.70;;;;;;;17.27;59.10;99617.50;107760;1274;97864;-65
2022/08/07 02:13:32;;;;;;;11.00;3.30;;;;;;;17.25;59.12;99623.34;107846;1276;112801;-65
2022/08/07 02:16:23;;;;;;;7.90;2.70;;;;;;;17.25;59.32;99623.21;107816;1274;97391;-66
2022/08/07 02:19:03;;;;;;;5.90;2.50;;;;;;;17.24;59.34;99629.35;107852;1274;107977;-66
2022/08/07 02:21:53;;;;;;;7.10;2.30;;;;;;;17.24;59.34;99631.38;107730;1276;97030;-64
2022/08/07 02:24:27;;;;;;;7.80;2.40;;;;;;;17.22;59.31;99632.23;107944;1274;97099;-64
2022/08/07 02:26:59;;;;;;;8.80;2.80;;;;;;;17.21;59.33;99628.21;107911;1274;111744;-66
2022/08/07 02:29:30;;;;;;;5.80;2.50;;;;;;;17.21;59.46;99622.84;107835;1275;97155;-65
2022/08/07 02:32:01;;;;;;;4.50;2.30;;;;;;;17.23;59.55;99621.25;107847;1274;107928;-65
2022/08/07 02:34:32;;;;;;;7.70;2.40;;;;;;;17.25;59.55;99630.91;107863;1274;97522;-66
2022/08/07 02:37:04;;;;;;;8.10;2.60;;;;;;;17.26;59.63;99631.70;107777;1274;97041;-65
2022/08/07 02:39:38;;;;;;;5.20;2.50;;;;;;;17.24;59.61;99634.56;107828;1274;112594;-64
2022/08/07 02:42:28;;;;;;;9.20;2.60;;;;;;;17.22;59.47;99637.83;107941;1274;97019;-65
2022/08/07 02:45:06;;;;;;;;;;;;;;;17.20;59.52;99636.36;107896;1272;107911;-66
2022/08/07 02:47:53;;;;;;;6.30;2.40;;;;;;;17.19;59.69;99640.99;107812;1276;97624;-65
2022/08/07 02:50:25;;;;;;;5.10;2.20;;;;;;;17.20;59.81;99643.94;107917;1274;97112;-65
2022/08/07 02:53:08;;;;;;;8.20;2.50;;;;;;;17.18;59.58;99640.35;107941;1274;112733;-67
2022/08/07 02:55:45;;;;;;;9.00;2.40;;;;;;;17.15;59.82;99639.88;107882;1274;97022;-65
2022/08/07 02:58:34;;;;;;;8.30;2.50;;;;;;;17.13;59.80;99638.83;107929;1274;107926;-66
2022/08/07 03:01:02;;;;;;;10.60;2.70;;;;;;;17.10;59.98;99637.83;107919;1274;97015;-66
2022/08/07 03:03:34;;;;;;;10.10;3.00;;;;;;;17.08;59.85;99637.80;107963;1274;97074;-65
2022/08/07 03:06:19;;;;;;;10.80;2.90;;;;;;;17.09;59.90;99638.42;107921;1274;113044;-65
2022/08/07 03:08:53;;;;;;;7.30;2.60;;;;;;;17.10;59.81;99642.71;107948;1274;97116;-65
2022/08/07 03:11:21;;;;;;;8.30;2.80;;;;;;;17.06;60.15;99642.47;107800;1274;107749;-64
2022/08/07 03:13:55;;;;;;;10.80;3.20;;;;;;;17.06;60.19;99646.98;107903;1274;97094;-64
2022/08/07 03:16:29;;;;;;;8.80;3.10;;;;;;;17.06;60.15;99647.33;107910;1274;97183;-64
2022/08/07 03:18:59;;;;;;;8.60;3.00;;;;;;;17.07;60.13;99653.65;107913;1274;111854;-65
2022/08/07 03:21:28;;;;;;;7.00;3.10;;;;;;;17.09;60.07;99651.87;107942;1274;98163;-65
2022/08/07 03:24:00;;;;;;;9.20;2.80;;;;;;;17.08;60.13;99650.39;107930;1274;107883;-65
2022/08/07 03:26:50;;;;;;;9.80;3.00;;;;;;;17.04;60.31;99649.67;107931;1274;97074;-66
2022/08/07 03:29:47;;;;;;;6.60;3.10;;;;;;;17.02;60.19;99653.05;107960;1274;96974;-65
2022/08/07 03:32:22;;;;;;;9.10;3.30;;;;;;;17.01;60.37;99654.39;107849;1275;112936;-65
2022/08/07 03:34:53;;;;;;;9.80;3.60;;;;;;;17.01;60.30;99659.94;107813;1274;97077;-65
2022/08/07 03:37:44;;;;;;;12.70;3.80;;;;;;;17.02;60.42;99660.77;107824;1275;107825;-65
2022/08/07 03:40:20;;;;;;;9.20;3.20;;;;;;;17.02;60.51;99662.52;107756;1274;98415;-65
2022/08/07 03:42:50;;;;;;;10.20;4.30;;;;;;;17.00;60.36;99663.27;107955;1274;98430;-66
2022/08/07 03:45:23;;;;;;;9.20;3.40;;;;;;;16.99;60.59;99665.53;107925;1274;113028;-65
2022/08/07 03:47:59;;;;;;;8.10;3.60;;;;;;;16.99;60.61;99669.10;107736;1274;97075;-65
2022/08/07 03:50:28;;;;;;;8.20;3.30;;;;;;;16.99;60.74;99668.18;106912;1274;1249209;-65
2022/08/07 03:52:58;;;;;;;10.70;4.30;;;;;;;17.01;60.73;99673.56;107863;1274;97055;-65
2022/08/07 03:55:28;;;;;;;12.30;4.00;;;;;;;17.03;60.64;99673.80;107942;1274;96945;-65
2022/08/07 03:58:19;;;;;;;11.70;4.00;;;;;;;17.01;60.59;99673.24;107936;1274;112880;-65
2022/08/07 04:01:09;;;;;;;11.40;4.10;;;;;;;17.00;60.70;99684.42;107939;1274;97177;-65
2022/08/07 04:03:38;;;;;;;10.70;4.10;;;;;;;16.99;60.82;99682.89;107572;1274;108119;-65
2022/08/07 04:06:21;;;;;;;11.10;4.40;;;;;;;16.98;60.82;99686.23;107933;1272;97070;-65
2022/08/07 04:09:06;;;;;;;11.30;4.30;;;;;;;16.98;60.75;99686.36;107909;1274;97040;-65
2022/08/07 04:11:45;;;;;;;8.60;3.70;;;;;;;16.94;60.95;99683.45;107945;1274;113016;-66
2022/08/07 04:14:34;;;;;;;10.00;3.90;;;;;;;16.98;61.07;99689.08;107922;1274;97036;-65
2022/08/07 04:17:11;;;;;;;9.60;4.00;;;;;;;16.98;61.10;99691.40;107905;1274;107850;-65
2022/08/07 04:19:49;;;;;;;6.90;3.90;;;;;;;16.96;61.17;99690.86;107923;1274;97401;-65
2022/08/07 04:22:24;;;;;;;14.40;4.40;;;;;;;16.96;60.96;99693.38;107912;1274;96979;-65
2022/08/07 04:24:58;;;;;;;10.80;4.00;;;;;;;16.91;60.94;99688.59;107913;1274;112942;-65
2022/08/07 04:27:29;;;;;;;11.20;4.00;;;;;;;16.96;61.02;99695.85;107933;1274;97434;-64
2022/08/07 04:30:06;;;;;;;11.70;4.20;;;;;;;16.99;61.35;99695.31;107906;1274;107818;-65
2022/08/07 04:32:41;;;;;;;13.90;4.10;;;;;;;16.99;61.10;99693.25;107938;1274;97069;-64
2022/08/07 04:35:14;;;;;;;14.10;4.80;;;;;;;17.02;61.35;99700.34;107920;1274;97004;-65
2022/08/07 04:37:42;;;;;;;10.70;4.30;;;;;;;17.05;61.27;99703.00;107916;1274;112808;-65
2022/08/07 04:40:30;;;;;;;10.40;4.60;;;;;;;17.06;61.24;99703.09;107933;1274;97008;-65
2022/08/07 04:43:00;;;;;;;18.30;4.80;;;;;;;17.06;61.40;99705.72;107771;1274;108015;-65
2022/08/07 04:46:12;;;;;;;11.10;4.40;;;;;;;17.05;61.14;99701.20;107930;1274;97456;-66
2022/08/07 04:49:22;;;;;;;12.60;4.40;;;;;;;17.06;61.38;99708.63;107676;1274;97406;-66
2022/08/07 04:52:14;;;;;;;8.90;3.90;;;;;;;17.06;61.35;99708.60;107588;1274;112479;-66
2022/08/07 04:54:56;;;;;;;8.30;3.20;;;;;;;17.06;61.44;99710.59;107920;1274;97015;-65
2022/08/07 04:57:36;;;;;;;9.10;3.40;;;;;;;17.06;61.46;99714.48;107730;1274;107708;-65
2022/08/07 05:00:39;;;;;;;10.70;4.20;;;;;;;17.08;61.50;99716.89;107898;1274;97083;-65
2022/08/07 05:03:26;;;;;;;;;;;;;;;17.08;61.37;99711.99;107931;1274;97089;-65
2022/08/07 05:06:30;;;;;;;7.50;3.40;;;;;;;17.00;61.37;99715.21;107917;1274;112994;-65
2022/08/07 05:09:28;;;;;;;8.30;3.20;;;;;;;17.05;61.61;99721.61;107789;1276;97087;-65
2022/08/07 05:12:17;;;;;;;7.40;2.90;;;;;;;17.06;61.46;99719.75;107917;1274;108456;-65
2022/08/07 05:15:14;;;;;;;8.90;3.60;;;;;;;17.03;61.28;99719.62;107898;1274;97052;-66
2022/08/07 05:17:56;;;;;;;10.00;3.40;;;;;;;17.06;61.41;99723.85;107789;1276;97096;-66
2022/08/07 05:20:33;;;;;;;9.30;3.80;;;;;;;17.11;61.60;99722.84;107884;1275;112876;-66
2022/08/07 05:23:08;;;;;;;10.00;2.90;;;;;;;17.18;61.45;99727.45;107873;1275;97008;-66
2022/08/07 05:25:44;;;;;;;9.10;3.00;;;;;;;17.23;61.37;99728.73;107722;1276;108094;-66
2022/08/07 05:28:34;;;;;;;11.10;3.20;;;;;;;17.29;61.57;99729.00;107823;1276;97044;-65
2022/08/07 05:31:04;;;;;;;11.30;3.10;;;;;;;17.31;61.48;99734.66;107819;1276;96991;-65
2022/08/07 05:33:35;;;;;;;6.50;2.70;;;;;;;17.34;61.55;99730.69;107915;1275;113446;-67
2022/08/07 05:36:07;;;;;;;6.10;2.70;;;;;;;17.36;61.57;99722.96;107944;1274;97087;-66
2022/08/07 05:38:50;;;;;;;5.30;2.70;;;;;;;17.43;61.62;99727.02;107911;1274;108649;-65
2022/08/07 05:41:40;;;;;;;7.10;2.70;;;;;;;17.46;61.53;99724.37;107849;1276;97111;-66
2022/08/07 05:44:29;;;;;;;9.60;3.40;;;;;;;17.46;61.38;99730.62;107833;1276;97353;-67
2022/08/07 05:46:59;;;;;;;8.20;2.80;;;;;;;17.49;61.50;99728.42;107901;1275;112779;-66
2022/08/07 05:49:28;;;;;;;7.20;2.50;;;;;;;17.52;61.55;99734.02;107939;1275;97004;-67
2022/08/07 05:52:07;;;;;;;5.90;2.30;;;;;;;17.58;61.46;99731.91;107834;1275;107976;-65
2022/08/07 05:54:38;;;;;;;9.00;2.50;;;;;;;17.57;61.37;99726.25;107841;1276;97125;-66
2022/08/07 05:57:23;;;;;;;8.40;2.40;;;;;;;17.66;61.41;99731.21;107737;1277;97035;-66
2022/08/07 05:59:59;;;;;;;6.60;2.70;;;;;;;17.69;61.56;99736.67;107717;1277;113083;-67
2022/08/07 06:02:31;;;;;;;5.00;2.30;;;;;;;17.76;61.53;99734.75;107738;1277;97166;-68
2022/08/07 06:05:10;;;;;;;8.20;2.30;;;;;;;17.81;61.44;99735.67;107711;1276;107723;-67
2022/08/07 06:07:43;;;;;;;5.70;2.40;;;;;;;17.88;61.22;99735.79;107796;1276;97074;-67
2022/08/07 06:10:31;;;;;;;8.20;2.50;;;;;;;17.91;61.32;99734.95;107831;1276;96964;-66
2022/08/07 06:13:00;;;;;;;8.00;2.60;;;;;;;17.99;61.06;99731.21;107748;1276;112985;-68
2022/08/07 06:15:29;;;;;;;5.50;2.40;;;;;;;18.06;61.06;99733.45;107916;1274;97004;-69
2022/08/07 06:18:12;;;;;;;7.40;2.60;;;;;;;18.12;60.95;99732.90;107879;1276;107775;-69
2022/08/07 06:20:44;;;;;;;5.50;2.00;;;;;;;18.22;60.97;99731.59;107950;1274;96907;-68
2022/08/07 06:23:32;;;;;;;4.70;2.20;;;;;;;18.34;61.02;99735.19;107959;1274;96934;-67
2022/08/07 06:26:20;;;;;;;6.20;2.00;;;;;;;18.44;60.99;99736.03;107904;1274;112626;-71
2022/08/07 06:28:58;;;;;;;6.60;2.30;;;;;;;18.61;61.02;99736.23;107904;1276;97478;-68
2022/08/07 06:31:28;;;;;;;8.60;2.80;;;;;;;18.68;60.72;99733.04;107908;1274;107904;-68
2022/08/07 06:34:15;;;;;;;11.90;2.20;;;;;;;18.79;60.62;99733.37;107924;1274;97021;-80
2022/08/07 06:36:47;;;;;;;6.80;2.30;;;;;;;18.90;60.73;99731.77;107877;1275;97329;-78
2022/08/07 06:39:20;;;;;;;6.00;1.80;;;;;;;19.00;60.80;99731.88;107923;1274;112828;-74
2022/08/07 06:42:19;;;;;;;4.20;1.70;;;;;;;19.11;60.67;99731.29;107893;1276;97227;-73
2022/08/07 06:45:03;;;;;;;4.10;1.80;;;;;;;19.18;60.46;99727.70;107923;1272;107048;-78
2022/08/07 06:47:31;;;;;;;6.80;1.70;;;;;;;19.21;60.52;99730.77;107731;1276;97086;-78
2022/08/07 06:50:20;;;;;;;5.50;2.00;;;;;;;19.25;60.38;99726.10;107964;1274;97037;-80
2022/08/07 06:52:53;;;;;;;7.40;2.80;;;;;;;19.28;60.40;99732.27;107912;1275;112800;-79
2022/08/07 06:55:25;;;;;;;6.60;2.70;;;;;;;19.28;60.43;99726.14;107982;1274;97064;-79
2022/08/07 06:58:14;;;;;;;6.50;2.60;;;;;;;19.34;60.46;99727.48;107755;1276;107794;-79
2022/08/07 07:00:48;;;;;;;4.80;2.50;;;;;;;19.38;60.29;99729.52;107922;1276;97032;-82
2022/08/07 07:03:20;;;;;;;10.30;2.60;;;;;;;19.36;59.99;99727.77;107945;1274;96983;-77
2022/08/07 07:06:09;;;;;;;6.80;2.50;;;;;;;19.32;60.05;99736.22;107882;1275;112728;-77
2022/08/07 07:08:38;;;;;;;10.00;3.00;;;;;;;19.29;60.11;99734.30;107890;1274;97741;-78
2022/08/07 07:11:13;;;;;;;6.90;2.80;;;;;;;19.31;60.10;99733.23;107861;1276;107524;-78
2022/08/07 07:14:03;;;;;;;10.30;2.60;;;;;;;19.32;60.03;99732.62;107867;1274;97404;-80
2022/08/07 07:16:38;;;;;;;4.90;2.10;;;;;;;19.38;60.02;99737.94;107929;1274;97050;-74
2022/08/07 07:19:27;;;;;;;5.40;2.50;;;;;;;19.42;59.85;99733.98;107896;1274;112869;-73
2022/08/07 07:22:17;;;;;;;7.30;2.30;;;;;;;19.47;59.69;99732.73;107902;1274;97024;-71
2022/08/07 07:25:06;;;;;;;9.00;2.30;;;;;;;19.52;59.71;99726.51;107887;1274;107741;-70
2022/08/07 07:28:19;;;;;;;6.30;2.00;;;;;;;19.72;59.65;99729.55;107914;1274;97400;-71
2022/08/07 07:31:15;;;;;;;7.90;2.50;;;;;;;19.85;59.70;99726.59;107953;1274;97401;-74
2022/08/07 07:33:53;;;;;;;14.70;3.60;;;;;;;19.95;59.54;99723.02;107856;1274;112742;-67
2022/08/07 07:36:25;;;;;;;9.40;2.60;;;;;;;20.05;59.58;99720.67;107955;1274;97241;-70
2022/08/07 07:39:01;;;;;;;7.80;3.50;;;;;;;20.15;59.64;99719.65;107829;1274;107994;-73
2022/08/07 07:41:32;;;;;;;8.10;3.40;;;;;;;20.29;59.46;99714.66;107907;1274;97082;-70
2022/08/07 07:44:21;;;;;;;12.20;3.00;;;;;;;20.44;59.32;99710.09;107959;1274;96988;-70
2022/08/07 07:46:54;;;;;;;9.90;2.90;;;;;;;20.61;59.37;99711.85;107934;1274;112614;-71
2022/08/07 07:49:40;;;;;;;6.90;2.10;;;;;;;20.76;59.14;99715.18;107975;1274;97019;-71
2022/08/07 07:52:29;;;;;;;7.50;1.90;;;;;;;20.93;59.03;99709.70;107964;1274;107748;-73
2022/08/07 07:54:59;;;;;;;8.00;1.90;;;;;;;21.08;58.85;99715.07;107937;1274;97038;-71
2022/08/07 07:57:31;;;;;;;6.40;1.70;;;;;;;21.31;58.74;99710.33;107949;1275;97046;-72
2022/08/07 08:00:19;;;;;;;4.50;1.60;;;;;;;21.70;58.68;99710.25;107929;1274;112825;-72
2022/08/07 08:03:08;;;;;;;3.40;1.50;;;;;;;22.37;58.35;99715.04;107969;1274;97379;-73
2022/08/07 08:05:56;;;;;;;5.60;1.00;;;;;;;22.83;58.09;99709.85;107959;1274;106041;-70
2022/08/07 08:08:27;;;;;;;4.00;1.50;;;;;;;23.19;57.90;99705.13;107957;1274;97025;-72
2022/08/07 08:11:06;;;;;;;6.10;2.10;;;;;;;24.22;56.93;99696.27;107987;1274;97032;-75
2022/08/07 08:13:39;;;;;;;22.60;7.40;;;;;;;25.15;56.99;99701.05;107966;1274;112512;-73
2022/08/07 08:16:27;;;;;;;9.40;3.40;;;;;;;25.81;57.32;99698.23;107993;1274;97431;-73
2022/08/07 08:19:02;;;;;;;8.20;2.40;;;;;;;26.38;56.95;99702.13;107967;1274;107842;-73
2022/08/07 08:27:53;;;;;;;2.50;1.20;;;;;;;26.82;56.17;99706.73;107975;1274;111821;-72
2022/08/07 08:30:32;;;;;;;2.60;1.40;;;;;;;26.93;56.07;99707.48;108000;1274;97511;-72
2022/08/07 08:33:05;;;;;;;3.50;1.30;;;;;;;27.16;55.95;99707.06;107958;1274;107809;-73
2022/08/07 08:35:47;;;;;;;5.30;1.40;;;;;;;27.58;55.54;99712.02;107918;1274;97057;-76
2022/08/07 08:38:21;;;;;;;4.00;1.00;;;;;;;28.16;55.09;99711.48;107950;1274;97419;-74
2022/08/07 08:41:06;;;;;;;3.10;1.20;;;;;;;29.02;54.62;99716.98;107820;1275;112616;-75
2022/08/07 08:43:48;;;;;;;6.10;1.60;;;;;;;29.82;54.19;99714.59;107951;1274;97470;-74
2022/08/07 08:46:42;;;;;;;6.50;1.80;;;;;;;30.43;53.72;99713.59;107944;1274;107896;-74
2022/08/07 08:49:23;;;;;;;4.30;1.70;;;;;;;30.99;53.37;99714.15;107748;1276;97089;-74
2022/08/07 08:52:11;;;;;;;3.90;1.20;;;;;;;31.58;52.78;99713.48;107962;1274;97059;-73
2022/08/07 08:54:58;;;;;;;5.30;1.50;;;;;;;32.17;52.80;99713.20;107926;1274;112902;-72
2022/08/07 08:57:45;;;;;;;2.10;1.20;;;;;;;32.70;51.88;99708.09;107932;1274;97679;-72
2022/08/07 09:00:15;;;;;;;4.50;1.20;;;;;;;33.11;51.73;99715.13;107923;1274;107811;-72
2022/08/07 09:02:55;;;;;;;10.00;2.20;;;;;;;33.46;51.07;99719.54;107910;1274;97008;-72
2022/08/07 09:05:42;;;;;;;9.00;1.80;;;;;;;33.77;51.01;99720.09;107945;1274;97070;-74
2022/08/07 09:08:18;;;;;;;4.10;1.30;;;;;;;34.00;49.75;99716.02;107946;1274;112738;-74
2022/08/07 09:11:17;;;;;;;5.40;1.30;;;;;;;34.02;49.39;99716.06;107935;1274;97505;-75
2022/08/07 09:14:18;;;;;;;3.80;1.00;;;;;;;34.57;49.07;99715.57;107953;1274;107698;-75
2022/08/07 09:16:45;;;;;;;3.20;1.10;;;;;;;35.13;48.57;99711.33;107949;1274;97445;-74
2022/08/07 09:19:38;;;;;;;5.10;1.20;;;;;;;35.06;48.02;99713.56;107966;1274;97105;-73
2022/08/07 09:23:04;;;;;;;6.70;1.60;;;;;;;35.03;47.00;99710.41;107706;1275;112731;-74
2022/08/07 09:26:12;;;;;;;2.70;0.80;;;;;;;35.22;46.77;99708.98;107388;1274;98179;-72
2022/08/07 09:28:51;;;;;;;4.20;1.30;;;;;;;35.46;46.34;99706.25;107910;1274;107454;-78
2022/08/07 09:31:55;;;;;;;2.90;1.50;;;;;;;35.90;45.82;99696.81;107898;1274;97699;-76
2022/08/07 09:34:43;;;;;;;3.00;0.80;;;;;;;35.89;44.97;99689.77;107941;1274;97451;-74
2022/08/07 09:37:43;;;;;;;3.70;1.30;;;;;;;35.78;44.31;99694.21;107934;1274;114488;-75
2022/08/07 09:40:58;;;;;;;3.50;1.20;;;;;;;35.69;43.54;99690.71;107870;1274;97489;-73
2022/08/07 09:44:02;;;;;;;3.60;1.40;;;;;;;35.41;43.09;99687.98;107775;1274;108562;-76
2022/08/07 09:46:52;;;;;;;5.30;1.20;;;;;;;35.35;43.06;99679.88;107973;1274;96994;-75
2022/08/07 09:50:15;;;;;;;3.20;0.90;;;;;;;35.45;42.32;99684.90;107966;1274;97420;-80
2022/08/07 09:52:50;;;;;;;2.60;1.00;;;;;;;35.41;41.41;99680.26;107662;1274;112432;-75
2022/08/07 09:55:34;;;;;;;4.00;1.20;;;;;;;35.31;41.26;99678.21;108008;1274;97482;-75
2022/08/07 09:58:42;;;;;;;;;;;;;;;35.61;40.92;99671.61;107903;1274;107716;-72
2022/08/07 10:01:42;;;;;;;5.50;1.30;;;;;;;35.76;40.50;99666.75;107933;1274;97041;-76
2022/08/07 10:04:44;;;;;;;1.10;0.70;;;;;;;35.68;39.97;99663.98;108006;1274;97054;-75
2022/08/07 10:08:01;;;;;;;4.60;1.10;;;;;;;35.27;39.91;99657.28;107973;1274;112826;-72
2022/08/07 10:10:55;;;;;;;8.70;1.00;;;;;;;34.44;38.41;99655.61;106987;1282;97540;-75
2022/08/07 10:14:08;;;;;;;3.70;1.00;;;;;;;33.62;38.83;99647.84;107982;1274;107908;-72
2022/08/07 10:17:15;;;;;;;3.00;0.80;;;;;;;32.95;38.33;99651.98;107989;1274;96977;-74
2022/08/07 10:19:52;;;;;;;4.20;0.90;;;;;;;32.28;37.96;99640.11;108006;1274;96968;-73
2022/08/07 10:22:48;;;;;;;6.10;1.50;;;;;;;31.95;37.69;99645.06;107962;1274;112456;-74
2022/08/07 10:25:48;;;;;;;3.80;1.10;;;;;;;31.48;37.40;99641.33;107944;1274;98173;-73
2022/08/07 10:28:35;;;;;;;2.60;0.80;;;;;;;31.09;37.12;99637.92;107956;1274;107692;-71
2022/08/07 10:31:28;;;;;;;2.20;0.70;;;;;;;30.57;36.49;99646.17;107973;1274;97034;-74
2022/08/07 10:34:50;;;;;;;3.60;0.70;;;;;;;30.06;36.58;99645.70;107969;1274;97082;-73
2022/08/07 10:37:49;;;;;;;4.40;2.70;;;;;;;29.84;36.36;99646.32;107743;1274;112785;-74
2022/08/07 10:40:44;;;;;;;5.30;1.60;;;;;;;29.58;36.31;99639.93;107887;1275;97465;-73
2022/08/07 10:43:29;;;;;;;3.50;0.90;;;;;;;29.37;36.03;99636.48;107918;1274;107534;-75
2022/08/07 10:46:12;;;;;;;2.80;1.00;;;;;;;29.16;36.04;99632.69;107899;1274;97286;-75
2022/08/07 10:48:47;;;;;;;2.70;0.70;;;;;;;29.09;35.76;99634.46;107949;1274;96933;-76
2022/08/07 10:51:34;;;;;;;3.70;0.90;;;;;;;28.99;35.75;99632.36;107966;1274;111551;-75
2022/08/07 10:54:41;;;;;;;5.60;0.90;;;;;;;28.85;35.51;99630.83;107855;1274;97976;-73
2022/08/07 10:57:44;;;;;;;7.40;1.30;;;;;;;28.78;35.46;99631.67;107711;1274;106096;-74
2022/08/07 11:00:28;;;;;;;20.50;11.70;;;;;;;28.73;35.28;99626.29;107876;1274;97338;-78
2022/08/07 11:03:31;;;;;;;3.90;2.30;;;;;;;28.55;35.16;99626.27;107835;1276;97056;-72
2022/08/07 11:06:21;;;;;;;3.90;1.20;;;;;;;28.43;35.07;99618.94;107823;1274;113288;-75
2022/08/07 11:09:06;;;;;;;4.20;1.10;;;;;;;28.26;35.26;99613.66;107898;1274;97056;-81
2022/08/07 11:11:48;;;;;;;5.40;1.70;;;;;;;28.15;34.98;99611.70;107930;1274;107769;-68
2022/08/07 11:14:23;;;;;;;3.90;1.00;;;;;;;28.08;35.19;99607.48;107932;1274;99343;-65
2022/08/07 11:17:29;;;;;;;6.20;1.20;;;;;;;27.93;35.09;99607.38;107946;1274;97459;-73
2022/08/07 11:20:17;;;;;;;8.00;1.80;;;;;;;27.81;34.83;99613.41;107841;1274;112421;-73
2022/08/07 11:22:58;;;;;;;2.40;1.00;;;;;;;27.79;35.11;99609.04;107557;1275;97627;-73
2022/08/07 11:25:37;;;;;;;10.60;1.40;;;;;;;27.69;34.73;99608.13;107811;1274;107705;-74
2022/08/07 11:28:28;;;;;;;5.40;1.10;;;;;;;27.60;34.92;99605.10;107830;1274;97111;-75
2022/08/07 11:31:12;;;;;;;3.10;1.20;;;;;;;27.53;34.61;99607.06;107797;1274;97115;-74
2022/08/07 11:34:11;;;;;;;3.50;1.00;;;;;;;27.49;34.41;99602.86;107860;1274;112646;-78
2022/08/07 11:37:16;;;;;;;3.00;0.60;;;;;;;27.42;34.74;99598.35;107928;1274;98255;-78
2022/08/07 11:40:03;;;;;;;2.50;0.90;;;;;;;27.20;34.28;99591.98;107750;1274;107789;-77
2022/08/07 11:42:41;;;;;;;3.10;1.30;;;;;;;27.09;34.59;99595.86;107874;1274;98327;-80
2022/08/07 11:45:33;;;;;;;7.80;1.10;;;;;;;27.03;34.56;99589.39;107807;1274;99029;-83
2022/08/07 11:48:20;;;;;;;1.50;0.80;;;;;;;27.00;34.65;99585.94;107913;1274;111538;-77
2022/08/07 11:51:26;;;;;;;5.10;1.20;;;;;;;26.83;34.52;99585.06;107886;1274;99374;-77
2022/08/07 11:54:34;;;;;;;3.80;0.90;;;;;;;26.72;34.44;99583.23;107808;1274;107845;-77
2022/08/07 11:57:25;;;;;;;2.50;0.80;;;;;;;26.67;34.46;99580.83;107865;1274;98291;-76
2022/08/07 12:00:23;;;;;;;4.10;1.20;;;;;;;26.69;34.70;99578.94;107852;1274;97385;-84
2022/08/07 12:03:35;;;;;;;2.20;0.90;;;;;;;26.64;34.44;99577.20;107828;1274;111377;-81
2022/08/07 12:06:31;;;;;;;1.60;1.00;;;;;;;26.36;34.15;99581.08;107869;1274;97878;-84
2022/08/07 12:09:23;;;;;;;1.60;0.60;;;;;;;26.11;34.32;99580.35;107870;1274;108362;-80
2022/08/07 12:12:07;;;;;;;4.00;0.90;;;;;;;25.82;34.24;99573.27;107825;1274;99267;-77
2022/08/07 12:14:48;;;;;;;5.80;1.10;;;;;;;25.71;34.46;99572.52;107953;1274;97422;-77
2022/08/07 12:17:31;;;;;;;5.90;0.90;;;;;;;25.72;34.54;99559.84;107913;1274;112615;-74
2022/08/07 12:20:07;;;;;;;2.20;0.70;;;;;;;25.72;34.17;99564.41;107788;1274;97527;-74
2022/08/07 12:23:30;;;;;;;1.50;0.90;;;;;;;25.58;34.14;99564.94;107899;1274;107772;-74
2022/08/07 12:26:26;;;;;;;3.10;1.20;;;;;;;25.57;34.12;99562.73;107926;1274;96966;-74
2022/08/07 12:29:08;;;;;;;2.20;0.70;;;;;;;25.55;34.21;99558.92;107978;1274;97455;-74
2022/08/07 12:31:50;;;;;;;3.00;0.90;;;;;;;25.53;34.27;99549.52;107935;1274;112791;-74
2022/08/07 12:34:33;;;;;;;4.00;1.00;;;;;;;25.53;34.19;99549.77;107968;1274;97528;-73
2022/08/07 12:37:02;;;;;;;7.00;0.90;;;;;;;25.55;34.41;99550.38;107987;1274;107905;-73
2022/08/07 12:39:49;;;;;;;3.50;1.00;;;;;;;25.63;34.35;99549.64;107973;1274;97371;-71